sensor_id;sensor_type;location;lat;lon;timestamp;P1;durP1;ratioP1;P2;durP2;ratioP2
3924;SDS011;1977;52.274;10.518;2023-12-20T00:01:12;7.70;;;6.87;;
3924;SDS011;1977;52.274;10.518;2023-12-20T00:03:39;8.37;;;6.47;;
3924;SDS011;1977;52.274;10.518;2023-12-20T00:06:07;6.87;;;6.27;;
3924;SDS011;1977;52.274;10.518;2023-12-20T00:08:34;8.17;;;7.37;;
3924;SDS011;1977;52.274;10.518;2023-12-20T00:11:01;7.17;;;6.47;;
3924;SDS011;1977;52.274;10.518;2023-12-20T00:13:28;9.00;;;8.10;;
3924;SDS011;1977;52.274;10.518;2023-12-20T00:15:55;7.50;;;6.80;;
3924;SDS011;1977;52.274;10.518;2023-12-20T00:18:21;6.70;;;6.10;;
3924;SDS011;1977;52.274;10.518;2023-12-20T00:20:49;7.60;;;6.77;;
3924;SDS011;1977;52.274;10.518;2023-12-20T00:23:17;7.00;;;6.30;;
3924;SDS011;1977;52.274;10.518;2023-12-20T00:25:44;7.97;;;7.20;;
3924;SDS011;1977;52.274;10.518;2023-12-20T00:28:11;7.53;;;6.30;;
3924;SDS011;1977;52.274;10.518;2023-12-20T00:30:37;7.43;;;6.73;;
3924;SDS011;1977;52.274;10.518;2023-12-20T00:33:04;8.50;;;7.60;;
3924;SDS011;1977;52.274;10.518;2023-12-20T00:35:31;8.30;;;7.50;;
3924;SDS011;1977;52.274;10.518;2023-12-20T00:37:58;8.03;;;7.30;;
3924;SDS011;1977;52.274;10.518;2023-12-20T00:40:26;8.00;;;7.20;;
3924;SDS011;1977;52.274;10.518;2023-12-20T00:42:53;7.30;;;6.60;;
3924;SDS011;1977;52.274;10.518;2023-12-20T00:45:19;7.80;;;6.97;;
3924;SDS011;1977;52.274;10.518;2023-12-20T00:47:46;9.20;;;7.47;;
3924;SDS011;1977;52.274;10.518;2023-12-20T00:50:13;9.37;;;7.07;;
3924;SDS011;1977;52.274;10.518;2023-12-20T00:52:40;8.33;;;7.13;;
3924;SDS011;1977;52.274;10.518;2023-12-20T00:55:07;11.60;;;7.50;;
3924;SDS011;1977;52.274;10.518;2023-12-20T00:57:35;8.50;;;7.60;;
3924;SDS011;1977;52.274;10.518;2023-12-20T01:00:02;9.17;;;7.47;;
3924;SDS011;1977;52.274;10.518;2023-12-20T01:02:29;9.00;;;7.67;;
3924;SDS011;1977;52.274;10.518;2023-12-20T01:04:55;12.23;;;8.70;;
3924;SDS011;1977;52.274;10.518;2023-12-20T01:07:22;8.87;;;6.83;;
3924;SDS011;1977;52.274;10.518;2023-12-20T01:09:49;9.33;;;8.20;;
3924;SDS011;1977;52.274;10.518;2023-12-20T01:12:16;8.53;;;7.73;;
3924;SDS011;1977;52.274;10.518;2023-12-20T01:14:43;10.67;;;7.70;;
3924;SDS011;1977;52.274;10.518;2023-12-20T01:17:10;10.30;;;8.20;;
3924;SDS011;1977;52.274;10.518;2023-12-20T01:19:36;8.00;;;7.10;;
3924;SDS011;1977;52.274;10.518;2023-12-20T01:22:03;11.90;;;8.20;;
3924;SDS011;1977;52.274;10.518;2023-12-20T01:24:30;10.43;;;8.63;;
3924;SDS011;1977;52.274;10.518;2023-12-20T01:26:57;9.00;;;7.67;;
3924;SDS011;1977;52.274;10.518;2023-12-20T01:29:24;12.40;;;9.03;;
3924;SDS011;1977;52.274;10.518;2023-12-20T01:31:52;9.47;;;7.70;;
3924;SDS011;1977;52.274;10.518;2023-12-20T01:34:19;8.93;;;7.10;;
3924;SDS011;1977;52.274;10.518;2023-12-20T01:36:46;10.97;;;7.70;;
3924;SDS011;1977;52.274;10.518;2023-12-20T01:39:12;12.17;;;6.60;;
3924;SDS011;1977;52.274;10.518;2023-12-20T01:41:39;9.97;;;6.87;;
3924;SDS011;1977;52.274;10.518;2023-12-20T01:44:06;6.73;;;6.03;;
3924;SDS011;1977;52.274;10.518;2023-12-20T01:46:32;9.93;;;6.63;;
3924;SDS011;1977;52.274;10.518;2023-12-20T01:49:01;9.13;;;6.70;;
3924;SDS011;1977;52.274;10.518;2023-12-20T01:51:28;10.07;;;6.20;;
3924;SDS011;1977;52.274;10.518;2023-12-20T01:53:55;8.13;;;5.97;;
3924;SDS011;1977;52.274;10.518;2023-12-20T01:56:24;6.13;;;5.40;;
3924;SDS011;1977;52.274;10.518;2023-12-20T01:58:50;7.00;;;5.67;;
3924;SDS011;1977;52.274;10.518;2023-12-20T02:01:17;7.00;;;4.70;;
3924;SDS011;1977;52.274;10.518;2023-12-20T02:03:44;5.80;;;4.23;;
3924;SDS011;1977;52.274;10.518;2023-12-20T02:06:13;10.60;;;4.60;;
3924;SDS011;1977;52.274;10.518;2023-12-20T02:08:40;9.60;;;5.20;;
3924;SDS011;1977;52.274;10.518;2023-12-20T02:11:07;9.57;;;5.50;;
3924;SDS011;1977;52.274;10.518;2023-12-20T02:13:33;6.80;;;4.50;;
3924;SDS011;1977;52.274;10.518;2023-12-20T02:16:00;10.70;;;5.47;;
3924;SDS011;1977;52.274;10.518;2023-12-20T02:18:27;7.00;;;4.93;;
3924;SDS011;1977;52.274;10.518;2023-12-20T02:20:53;7.73;;;4.87;;
3924;SDS011;1977;52.274;10.518;2023-12-20T02:23:22;6.47;;;4.50;;
3924;SDS011;1977;52.274;10.518;2023-12-20T02:25:49;6.83;;;4.10;;
3924;SDS011;1977;52.274;10.518;2023-12-20T02:28:16;6.30;;;4.60;;
3924;SDS011;1977;52.274;10.518;2023-12-20T02:30:43;11.90;;;4.20;;
3924;SDS011;1977;52.274;10.518;2023-12-20T02:33:10;9.63;;;4.00;;
3924;SDS011;1977;52.274;10.518;2023-12-20T02:35:40;7.90;;;4.53;;
3924;SDS011;1977;52.274;10.518;2023-12-20T02:38:06;6.57;;;3.60;;
3924;SDS011;1977;52.274;10.518;2023-12-20T02:40:35;6.70;;;3.70;;
3924;SDS011;1977;52.274;10.518;2023-12-20T02:43:01;5.93;;;3.50;;
3924;SDS011;1977;52.274;10.518;2023-12-20T02:45:28;5.83;;;3.33;;
3924;SDS011;1977;52.274;10.518;2023-12-20T02:47:55;3.37;;;3.17;;
3924;SDS011;1977;52.274;10.518;2023-12-20T02:50:22;5.17;;;3.90;;
3924;SDS011;1977;52.274;10.518;2023-12-20T02:52:49;4.73;;;3.40;;
3924;SDS011;1977;52.274;10.518;2023-12-20T02:55:15;4.20;;;2.90;;
3924;SDS011;1977;52.274;10.518;2023-12-20T02:57:44;7.60;;;2.90;;
3924;SDS011;1977;52.274;10.518;2023-12-20T03:00:11;7.13;;;3.13;;
3924;SDS011;1977;52.274;10.518;2023-12-20T03:02:38;4.40;;;3.00;;
3924;SDS011;1977;52.274;10.518;2023-12-20T03:05:05;3.50;;;2.20;;
3924;SDS011;1977;52.274;10.518;2023-12-20T03:07:32;4.13;;;2.67;;
3924;SDS011;1977;52.274;10.518;2023-12-20T03:09:59;5.07;;;3.10;;
3924;SDS011;1977;52.274;10.518;2023-12-20T03:12:25;6.03;;;2.40;;
3924;SDS011;1977;52.274;10.518;2023-12-20T03:14:53;4.13;;;2.67;;
3924;SDS011;1977;52.274;10.518;2023-12-20T03:17:20;5.50;;;2.80;;
3924;SDS011;1977;52.274;10.518;2023-12-20T03:19:47;4.10;;;2.90;;
3924;SDS011;1977;52.274;10.518;2023-12-20T03:22:13;4.90;;;2.40;;
3924;SDS011;1977;52.274;10.518;2023-12-20T03:24:40;3.77;;;2.30;;
3924;SDS011;1977;52.274;10.518;2023-12-20T03:27:07;10.87;;;2.80;;
3924;SDS011;1977;52.274;10.518;2023-12-20T03:29:34;5.17;;;2.30;;
3924;SDS011;1977;52.274;10.518;2023-12-20T03:32:02;4.50;;;2.67;;
3924;SDS011;1977;52.274;10.518;2023-12-20T03:34:29;4.37;;;2.60;;
3924;SDS011;1977;52.274;10.518;2023-12-20T03:36:56;3.20;;;2.50;;
3924;SDS011;1977;52.274;10.518;2023-12-20T03:39:23;2.60;;;2.40;;
3924;SDS011;1977;52.274;10.518;2023-12-20T03:41:49;7.47;;;3.00;;
3924;SDS011;1977;52.274;10.518;2023-12-20T03:44:16;2.13;;;2.03;;
3924;SDS011;1977;52.274;10.518;2023-12-20T03:46:43;4.63;;;2.90;;
3924;SDS011;1977;52.274;10.518;2023-12-20T03:49:12;7.33;;;2.63;;
3924;SDS011;1977;52.274;10.518;2023-12-20T03:51:38;5.77;;;2.40;;
3924;SDS011;1977;52.274;10.518;2023-12-20T03:54:07;3.77;;;2.50;;
3924;SDS011;1977;52.274;10.518;2023-12-20T03:56:33;3.63;;;1.90;;
3924;SDS011;1977;52.274;10.518;2023-12-20T03:59:00;7.50;;;3.03;;
3924;SDS011;1977;52.274;10.518;2023-12-20T04:01:27;3.03;;;2.20;;
3924;SDS011;1977;52.274;10.518;2023-12-20T04:03:54;3.70;;;2.60;;
3924;SDS011;1977;52.274;10.518;2023-12-20T04:06:22;5.53;;;2.20;;
3924;SDS011;1977;52.274;10.518;2023-12-20T04:08:48;3.30;;;2.60;;
3924;SDS011;1977;52.274;10.518;2023-12-20T04:11:15;4.20;;;2.10;;
3924;SDS011;1977;52.274;10.518;2023-12-20T04:13:42;3.80;;;2.37;;
3924;SDS011;1977;52.274;10.518;2023-12-20T04:16:09;6.00;;;2.60;;
3924;SDS011;1977;52.274;10.518;2023-12-20T04:18:35;2.37;;;2.17;;
3924;SDS011;1977;52.274;10.518;2023-12-20T04:21:02;3.17;;;1.97;;
3924;SDS011;1977;52.274;10.518;2023-12-20T04:23:31;2.60;;;2.23;;
3924;SDS011;1977;52.274;10.518;2023-12-20T04:25:57;7.40;;;2.70;;
3924;SDS011;1977;52.274;10.518;2023-12-20T04:28:24;4.13;;;2.33;;
3924;SDS011;1977;52.274;10.518;2023-12-20T04:30:51;4.20;;;2.50;;
3924;SDS011;1977;52.274;10.518;2023-12-20T04:33:17;3.67;;;2.10;;
3924;SDS011;1977;52.274;10.518;2023-12-20T04:35:44;2.20;;;1.77;;
3924;SDS011;1977;52.274;10.518;2023-12-20T04:38:11;6.53;;;2.50;;
3924;SDS011;1977;52.274;10.518;2023-12-20T04:40:39;7.00;;;3.10;;
3924;SDS011;1977;52.274;10.518;2023-12-20T04:43:06;4.70;;;2.57;;
3924;SDS011;1977;52.274;10.518;2023-12-20T04:45:33;11.17;;;2.70;;
3924;SDS011;1977;52.274;10.518;2023-12-20T04:48:00;7.40;;;2.63;;
3924;SDS011;1977;52.274;10.518;2023-12-20T04:50:28;5.80;;;2.27;;
3924;SDS011;1977;52.274;10.518;2023-12-20T04:52:54;3.10;;;2.70;;
3924;SDS011;1977;52.274;10.518;2023-12-20T04:55:21;4.63;;;2.33;;
3924;SDS011;1977;52.274;10.518;2023-12-20T04:57:49;5.60;;;2.83;;
3924;SDS011;1977;52.274;10.518;2023-12-20T05:00:16;8.40;;;3.00;;
3924;SDS011;1977;52.274;10.518;2023-12-20T05:02:43;4.23;;;2.43;;
3924;SDS011;1977;52.274;10.518;2023-12-20T05:05:10;4.10;;;2.10;;
3924;SDS011;1977;52.274;10.518;2023-12-20T05:07:37;1.97;;;1.83;;
3924;SDS011;1977;52.274;10.518;2023-12-20T05:10:04;2.30;;;2.10;;
3924;SDS011;1977;52.274;10.518;2023-12-20T05:12:33;2.70;;;2.07;;
3924;SDS011;1977;52.274;10.518;2023-12-20T05:15:01;4.03;;;1.97;;
3924;SDS011;1977;52.274;10.518;2023-12-20T05:17:28;6.20;;;2.43;;
3924;SDS011;1977;52.274;10.518;2023-12-20T05:19:55;2.37;;;2.10;;
3924;SDS011;1977;52.274;10.518;2023-12-20T05:22:21;2.27;;;2.07;;
3924;SDS011;1977;52.274;10.518;2023-12-20T05:24:48;5.33;;;2.27;;
3924;SDS011;1977;52.274;10.518;2023-12-20T05:27:15;4.67;;;4.20;;
3924;SDS011;1977;52.274;10.518;2023-12-20T05:29:42;3.40;;;2.80;;
3924;SDS011;1977;52.274;10.518;2023-12-20T05:32:10;5.83;;;2.57;;
3924;SDS011;1977;52.274;10.518;2023-12-20T05:34:37;2.97;;;2.67;;
3924;SDS011;1977;52.274;10.518;2023-12-20T05:37:03;2.77;;;2.47;;
3924;SDS011;1977;52.274;10.518;2023-12-20T05:39:30;3.13;;;2.07;;
3924;SDS011;1977;52.274;10.518;2023-12-20T05:41:57;4.37;;;2.60;;
3924;SDS011;1977;52.274;10.518;2023-12-20T05:44:23;5.57;;;2.80;;
3924;SDS011;1977;52.274;10.518;2023-12-20T05:46:50;6.10;;;2.40;;
3924;SDS011;1977;52.274;10.518;2023-12-20T05:49:18;5.80;;;2.93;;
3924;SDS011;1977;52.274;10.518;2023-12-20T05:51:46;2.63;;;2.53;;
3924;SDS011;1977;52.274;10.518;2023-12-20T05:54:13;5.10;;;3.50;;
3924;SDS011;1977;52.274;10.518;2023-12-20T05:56:40;5.87;;;3.00;;
3924;SDS011;1977;52.274;10.518;2023-12-20T05:59:07;3.50;;;3.20;;
3924;SDS011;1977;52.274;10.518;2023-12-20T06:01:34;3.73;;;2.90;;
3924;SDS011;1977;52.274;10.518;2023-12-20T06:04:01;4.17;;;3.73;;
3924;SDS011;1977;52.274;10.518;2023-12-20T06:06:29;5.33;;;3.70;;
3924;SDS011;1977;52.274;10.518;2023-12-20T06:08:56;8.20;;;3.03;;
3924;SDS011;1977;52.274;10.518;2023-12-20T06:11:23;5.37;;;3.37;;
3924;SDS011;1977;52.274;10.518;2023-12-20T06:13:50;3.80;;;3.23;;
3924;SDS011;1977;52.274;10.518;2023-12-20T06:16:18;5.63;;;2.97;;
3924;SDS011;1977;52.274;10.518;2023-12-20T06:18:45;5.17;;;4.33;;
3924;SDS011;1977;52.274;10.518;2023-12-20T06:21:11;7.23;;;4.00;;
3924;SDS011;1977;52.274;10.518;2023-12-20T06:23:40;6.07;;;3.00;;
3924;SDS011;1977;52.274;10.518;2023-12-20T06:26:07;10.00;;;4.63;;
3924;SDS011;1977;52.274;10.518;2023-12-20T06:28:34;4.70;;;3.30;;
3924;SDS011;1977;52.274;10.518;2023-12-20T06:31:01;5.30;;;3.70;;
3924;SDS011;1977;52.274;10.518;2023-12-20T06:33:28;10.73;;;3.57;;
3924;SDS011;1977;52.274;10.518;2023-12-20T06:35:56;3.47;;;3.17;;
3924;SDS011;1977;52.274;10.518;2023-12-20T06:38:22;6.20;;;3.90;;
3924;SDS011;1977;52.274;10.518;2023-12-20T06:40:50;4.53;;;3.80;;
3924;SDS011;1977;52.274;10.518;2023-12-20T06:43:17;5.93;;;4.10;;
3924;SDS011;1977;52.274;10.518;2023-12-20T06:45:44;5.43;;;3.90;;
3924;SDS011;1977;52.274;10.518;2023-12-20T06:48:11;6.77;;;3.93;;
3924;SDS011;1977;52.274;10.518;2023-12-20T06:50:38;9.03;;;4.23;;
3924;SDS011;1977;52.274;10.518;2023-12-20T06:53:05;11.47;;;3.93;;
3924;SDS011;1977;52.274;10.518;2023-12-20T06:55:33;5.77;;;3.47;;
3924;SDS011;1977;52.274;10.518;2023-12-20T06:58:01;10.90;;;4.20;;
3924;SDS011;1977;52.274;10.518;2023-12-20T07:00:28;4.87;;;3.97;;
3924;SDS011;1977;52.274;10.518;2023-12-20T07:02:56;6.87;;;4.27;;
3924;SDS011;1977;52.274;10.518;2023-12-20T07:05:23;8.90;;;3.90;;
3924;SDS011;1977;52.274;10.518;2023-12-20T07:07:50;7.60;;;3.97;;
3924;SDS011;1977;52.274;10.518;2023-12-20T07:10:17;9.60;;;5.00;;
3924;SDS011;1977;52.274;10.518;2023-12-20T07:12:43;6.40;;;4.00;;
3924;SDS011;1977;52.274;10.518;2023-12-20T07:15:12;6.23;;;3.90;;
3924;SDS011;1977;52.274;10.518;2023-12-20T07:17:38;3.50;;;3.20;;
3924;SDS011;1977;52.274;10.518;2023-12-20T07:20:06;6.47;;;3.80;;
3924;SDS011;1977;52.274;10.518;2023-12-20T07:22:35;8.20;;;3.67;;
3924;SDS011;1977;52.274;10.518;2023-12-20T07:25:02;6.83;;;4.37;;
3924;SDS011;1977;52.274;10.518;2023-12-20T07:27:30;11.23;;;5.20;;
3924;SDS011;1977;52.274;10.518;2023-12-20T07:29:56;7.97;;;4.33;;
3924;SDS011;1977;52.274;10.518;2023-12-20T07:32:24;8.03;;;4.40;;
3924;SDS011;1977;52.274;10.518;2023-12-20T07:34:51;11.00;;;4.40;;
3924;SDS011;1977;52.274;10.518;2023-12-20T07:37:18;6.80;;;4.33;;
3924;SDS011;1977;52.274;10.518;2023-12-20T07:39:46;6.70;;;4.00;;
3924;SDS011;1977;52.274;10.518;2023-12-20T07:42:13;8.10;;;4.53;;
3924;SDS011;1977;52.274;10.518;2023-12-20T07:44:39;12.33;;;4.87;;
3924;SDS011;1977;52.274;10.518;2023-12-20T07:47:06;10.03;;;4.20;;
3924;SDS011;1977;52.274;10.518;2023-12-20T07:49:34;5.97;;;3.90;;
3924;SDS011;1977;52.274;10.518;2023-12-20T07:52:01;6.20;;;3.70;;
3924;SDS011;1977;52.274;10.518;2023-12-20T07:54:28;7.73;;;3.60;;
3924;SDS011;1977;52.274;10.518;2023-12-20T07:56:55;6.43;;;4.30;;
3924;SDS011;1977;52.274;10.518;2023-12-20T07:59:22;9.20;;;4.70;;
3924;SDS011;1977;52.274;10.518;2023-12-20T08:01:49;9.13;;;3.93;;
3924;SDS011;1977;52.274;10.518;2023-12-20T08:04:16;13.07;;;4.40;;
3924;SDS011;1977;52.274;10.518;2023-12-20T08:06:44;3.70;;;3.20;;
3924;SDS011;1977;52.274;10.518;2023-12-20T08:09:11;8.13;;;4.07;;
3924;SDS011;1977;52.274;10.518;2023-12-20T08:11:38;10.40;;;4.43;;
3924;SDS011;1977;52.274;10.518;2023-12-20T08:14:04;6.43;;;4.33;;
3924;SDS011;1977;52.274;10.518;2023-12-20T08:16:31;6.00;;;3.87;;
3924;SDS011;1977;52.274;10.518;2023-12-20T08:18:58;3.60;;;3.30;;
3924;SDS011;1977;52.274;10.518;2023-12-20T08:21:24;10.10;;;4.70;;
3924;SDS011;1977;52.274;10.518;2023-12-20T08:23:53;9.40;;;4.37;;
3924;SDS011;1977;52.274;10.518;2023-12-20T08:26:19;8.80;;;4.70;;
3924;SDS011;1977;52.274;10.518;2023-12-20T08:28:47;9.93;;;4.00;;
3924;SDS011;1977;52.274;10.518;2023-12-20T08:31:14;8.60;;;4.40;;
3924;SDS011;1977;52.274;10.518;2023-12-20T08:33:43;9.23;;;4.30;;
3924;SDS011;1977;52.274;10.518;2023-12-20T08:36:10;7.53;;;4.70;;
3924;SDS011;1977;52.274;10.518;2023-12-20T08:38:37;10.00;;;4.50;;
3924;SDS011;1977;52.274;10.518;2023-12-20T08:41:06;5.93;;;4.37;;
3924;SDS011;1977;52.274;10.518;2023-12-20T08:43:33;7.00;;;3.50;;
3924;SDS011;1977;52.274;10.518;2023-12-20T08:46:01;6.70;;;3.83;;
3924;SDS011;1977;52.274;10.518;2023-12-20T08:48:28;7.70;;;4.67;;
3924;SDS011;1977;52.274;10.518;2023-12-20T08:50:55;7.60;;;5.03;;
3924;SDS011;1977;52.274;10.518;2023-12-20T08:53:21;4.23;;;3.80;;
3924;SDS011;1977;52.274;10.518;2023-12-20T08:55:48;10.53;;;4.30;;
3924;SDS011;1977;52.274;10.518;2023-12-20T08:58:16;4.53;;;4.03;;
3924;SDS011;1977;52.274;10.518;2023-12-20T09:00:43;8.13;;;3.87;;
3924;SDS011;1977;52.274;10.518;2023-12-20T09:03:11;8.67;;;4.20;;
3924;SDS011;1977;52.274;10.518;2023-12-20T09:05:37;14.13;;;4.50;;
3924;SDS011;1977;52.274;10.518;2023-12-20T09:08:04;10.13;;;4.53;;
3924;SDS011;1977;52.274;10.518;2023-12-20T09:10:32;6.07;;;4.03;;
3924;SDS011;1977;52.274;10.518;2023-12-20T09:12:59;14.27;;;4.43;;
3924;SDS011;1977;52.274;10.518;2023-12-20T09:15:27;7.87;;;4.50;;
3924;SDS011;1977;52.274;10.518;2023-12-20T09:17:55;9.40;;;3.60;;
3924;SDS011;1977;52.274;10.518;2023-12-20T09:20:22;8.87;;;4.63;;
3924;SDS011;1977;52.274;10.518;2023-12-20T09:22:49;5.27;;;4.10;;
3924;SDS011;1977;52.274;10.518;2023-12-20T09:25:16;7.70;;;3.83;;
3924;SDS011;1977;52.274;10.518;2023-12-20T09:27:43;8.70;;;4.93;;
3924;SDS011;1977;52.274;10.518;2023-12-20T09:30:09;6.27;;;3.17;;
3924;SDS011;1977;52.274;10.518;2023-12-20T09:32:37;6.10;;;4.30;;
3924;SDS011;1977;52.274;10.518;2023-12-20T09:35:05;8.10;;;3.87;;
3924;SDS011;1977;52.274;10.518;2023-12-20T09:37:33;10.40;;;5.93;;
3924;SDS011;1977;52.274;10.518;2023-12-20T09:40:00;7.60;;;3.83;;
3924;SDS011;1977;52.274;10.518;2023-12-20T09:42:29;9.00;;;4.30;;
3924;SDS011;1977;52.274;10.518;2023-12-20T09:45:03;5.23;;;3.50;;
3924;SDS011;1977;52.274;10.518;2023-12-20T09:47:33;8.93;;;4.83;;
3924;SDS011;1977;52.274;10.518;2023-12-20T09:50:02;13.07;;;4.80;;
3924;SDS011;1977;52.274;10.518;2023-12-20T09:52:30;6.90;;;3.90;;
3924;SDS011;1977;52.274;10.518;2023-12-20T09:54:58;4.70;;;2.93;;
3924;SDS011;1977;52.274;10.518;2023-12-20T09:57:26;8.33;;;4.00;;
3924;SDS011;1977;52.274;10.518;2023-12-20T09:59:53;4.73;;;3.40;;
3924;SDS011;1977;52.274;10.518;2023-12-20T10:02:20;6.07;;;3.50;;
3924;SDS011;1977;52.274;10.518;2023-12-20T10:04:52;10.87;;;4.70;;
3924;SDS011;1977;52.274;10.518;2023-12-20T10:07:21;3.40;;;3.20;;
3924;SDS011;1977;52.274;10.518;2023-12-20T10:09:48;6.07;;;4.83;;
3924;SDS011;1977;52.274;10.518;2023-12-20T10:12:17;4.80;;;4.13;;
3924;SDS011;1977;52.274;10.518;2023-12-20T10:14:44;5.50;;;3.57;;
3924;SDS011;1977;52.274;10.518;2023-12-20T10:17:10;5.87;;;3.93;;
3924;SDS011;1977;52.274;10.518;2023-12-20T10:19:37;9.40;;;4.00;;
3924;SDS011;1977;52.274;10.518;2023-12-20T10:22:04;6.60;;;5.07;;
3924;SDS011;1977;52.274;10.518;2023-12-20T10:24:32;10.93;;;3.77;;
3924;SDS011;1977;52.274;10.518;2023-12-20T10:27:02;9.33;;;4.27;;
3924;SDS011;1977;52.274;10.518;2023-12-20T10:29:31;11.20;;;4.60;;
3924;SDS011;1977;52.274;10.518;2023-12-20T10:31:59;6.07;;;3.90;;
3924;SDS011;1977;52.274;10.518;2023-12-20T10:34:26;9.30;;;4.23;;
3924;SDS011;1977;52.274;10.518;2023-12-20T10:36:52;6.90;;;3.43;;
3924;SDS011;1977;52.274;10.518;2023-12-20T10:39:19;10.17;;;3.80;;
3924;SDS011;1977;52.274;10.518;2023-12-20T10:41:48;4.63;;;3.80;;
3924;SDS011;1977;52.274;10.518;2023-12-20T10:44:15;6.73;;;3.70;;
3924;SDS011;1977;52.274;10.518;2023-12-20T10:46:43;7.40;;;4.40;;
3924;SDS011;1977;52.274;10.518;2023-12-20T10:49:16;5.10;;;3.80;;
3924;SDS011;1977;52.274;10.518;2023-12-20T10:51:45;8.90;;;4.23;;
3924;SDS011;1977;52.274;10.518;2023-12-20T10:54:13;6.07;;;3.90;;
3924;SDS011;1977;52.274;10.518;2023-12-20T10:56:40;4.87;;;3.50;;
3924;SDS011;1977;52.274;10.518;2023-12-20T10:59:10;5.13;;;3.70;;
3924;SDS011;1977;52.274;10.518;2023-12-20T11:01:38;12.27;;;4.50;;
3924;SDS011;1977;52.274;10.518;2023-12-20T11:04:07;4.47;;;3.33;;
3924;SDS011;1977;52.274;10.518;2023-12-20T11:06:39;5.23;;;3.47;;
3924;SDS011;1977;52.274;10.518;2023-12-20T11:09:14;7.77;;;4.30;;
3924;SDS011;1977;52.274;10.518;2023-12-20T11:11:59;4.60;;;3.27;;
3924;SDS011;1977;52.274;10.518;2023-12-20T11:14:34;5.90;;;4.23;;
3924;SDS011;1977;52.274;10.518;2023-12-20T11:17:06;8.27;;;4.07;;
3924;SDS011;1977;52.274;10.518;2023-12-20T11:19:35;9.50;;;4.60;;
3924;SDS011;1977;52.274;10.518;2023-12-20T11:22:03;6.53;;;4.43;;
3924;SDS011;1977;52.274;10.518;2023-12-20T11:24:31;7.00;;;5.37;;
3924;SDS011;1977;52.274;10.518;2023-12-20T11:26:59;8.13;;;4.77;;
3924;SDS011;1977;52.274;10.518;2023-12-20T11:29:31;7.30;;;6.50;;
3924;SDS011;1977;52.274;10.518;2023-12-20T11:32:01;5.13;;;4.73;;
3924;SDS011;1977;52.274;10.518;2023-12-20T11:34:31;8.13;;;5.13;;
3924;SDS011;1977;52.274;10.518;2023-12-20T11:36:59;8.47;;;5.67;;
3924;SDS011;1977;52.274;10.518;2023-12-20T11:39:26;7.90;;;5.37;;
3924;SDS011;1977;52.274;10.518;2023-12-20T11:41:54;5.07;;;4.57;;
3924;SDS011;1977;52.274;10.518;2023-12-20T11:44:22;9.17;;;5.40;;
3924;SDS011;1977;52.274;10.518;2023-12-20T11:46:52;6.07;;;5.50;;
3924;SDS011;1977;52.274;10.518;2023-12-20T11:49:22;7.80;;;5.60;;
3924;SDS011;1977;52.274;10.518;2023-12-20T11:51:49;10.03;;;5.43;;
3924;SDS011;1977;52.274;10.518;2023-12-20T11:54:16;5.73;;;5.10;;
3924;SDS011;1977;52.274;10.518;2023-12-20T11:56:43;9.03;;;5.27;;
3924;SDS011;1977;52.274;10.518;2023-12-20T11:59:10;8.73;;;4.70;;
3924;SDS011;1977;52.274;10.518;2023-12-20T12:01:37;12.20;;;6.07;;
3924;SDS011;1977;52.274;10.518;2023-12-20T12:04:05;6.47;;;5.60;;
3924;SDS011;1977;52.274;10.518;2023-12-20T12:06:32;8.80;;;5.83;;
3924;SDS011;1977;52.274;10.518;2023-12-20T12:08:59;7.80;;;5.00;;
3924;SDS011;1977;52.274;10.518;2023-12-20T12:11:27;7.07;;;5.40;;
3924;SDS011;1977;52.274;10.518;2023-12-20T12:13:54;8.70;;;5.13;;
3924;SDS011;1977;52.274;10.518;2023-12-20T12:16:21;6.40;;;4.80;;
3924;SDS011;1977;52.274;10.518;2023-12-20T12:18:54;6.73;;;4.87;;
3924;SDS011;1977;52.274;10.518;2023-12-20T12:21:23;9.23;;;5.33;;
3924;SDS011;1977;52.274;10.518;2023-12-20T12:23:50;6.70;;;4.57;;
3924;SDS011;1977;52.274;10.518;2023-12-20T12:26:16;6.00;;;4.63;;
3924;SDS011;1977;52.274;10.518;2023-12-20T12:28:43;6.23;;;3.30;;
3924;SDS011;1977;52.274;10.518;2023-12-20T12:31:13;3.90;;;3.43;;
3924;SDS011;1977;52.274;10.518;2023-12-20T12:33:40;5.13;;;3.07;;
3924;SDS011;1977;52.274;10.518;2023-12-20T12:36:08;7.10;;;3.90;;
3924;SDS011;1977;52.274;10.518;2023-12-20T12:38:38;6.80;;;4.33;;
3924;SDS011;1977;52.274;10.518;2023-12-20T12:41:05;5.93;;;4.70;;
3924;SDS011;1977;52.274;10.518;2023-12-20T12:43:32;7.70;;;4.07;;
3924;SDS011;1977;52.274;10.518;2023-12-20T12:46:07;4.47;;;4.07;;
3924;SDS011;1977;52.274;10.518;2023-12-20T12:48:34;6.47;;;3.33;;
3924;SDS011;1977;52.274;10.518;2023-12-20T12:51:01;3.93;;;2.80;;
3924;SDS011;1977;52.274;10.518;2023-12-20T12:53:28;2.30;;;2.10;;
3924;SDS011;1977;52.274;10.518;2023-12-20T12:55:56;1.80;;;1.70;;
3924;SDS011;1977;52.274;10.518;2023-12-20T12:58:23;4.50;;;1.60;;
3924;SDS011;1977;52.274;10.518;2023-12-20T13:00:51;2.13;;;1.80;;
3924;SDS011;1977;52.274;10.518;2023-12-20T13:03:17;3.60;;;1.70;;
3924;SDS011;1977;52.274;10.518;2023-12-20T13:05:44;2.03;;;1.93;;
3924;SDS011;1977;52.274;10.518;2023-12-20T13:08:12;2.17;;;2.07;;
3924;SDS011;1977;52.274;10.518;2023-12-20T13:10:39;3.03;;;1.63;;
3924;SDS011;1977;52.274;10.518;2023-12-20T13:13:07;2.37;;;1.60;;
3924;SDS011;1977;52.274;10.518;2023-12-20T13:15:34;1.80;;;1.70;;
3924;SDS011;1977;52.274;10.518;2023-12-20T13:18:00;3.13;;;1.77;;
3924;SDS011;1977;52.274;10.518;2023-12-20T13:20:29;2.80;;;1.47;;
3924;SDS011;1977;52.274;10.518;2023-12-20T13:22:56;2.43;;;1.67;;
3924;SDS011;1977;52.274;10.518;2023-12-20T13:25:23;2.50;;;1.70;;
3924;SDS011;1977;52.274;10.518;2023-12-20T13:27:50;2.43;;;1.80;;
3924;SDS011;1977;52.274;10.518;2023-12-20T13:30:18;1.83;;;1.50;;
3924;SDS011;1977;52.274;10.518;2023-12-20T13:32:46;1.67;;;1.37;;
3924;SDS011;1977;52.274;10.518;2023-12-20T13:35:14;2.00;;;1.53;;
3924;SDS011;1977;52.274;10.518;2023-12-20T13:37:41;3.37;;;1.60;;
3924;SDS011;1977;52.274;10.518;2023-12-20T13:40:08;2.13;;;1.57;;
3924;SDS011;1977;52.274;10.518;2023-12-20T13:42:35;4.10;;;1.33;;
3924;SDS011;1977;52.274;10.518;2023-12-20T13:45:02;1.67;;;1.60;;
3924;SDS011;1977;52.274;10.518;2023-12-20T13:47:31;4.20;;;2.03;;
3924;SDS011;1977;52.274;10.518;2023-12-20T13:49:58;2.60;;;1.47;;
3924;SDS011;1977;52.274;10.518;2023-12-20T13:52:25;3.13;;;2.27;;
3924;SDS011;1977;52.274;10.518;2023-12-20T13:54:51;1.80;;;1.70;;
3924;SDS011;1977;52.274;10.518;2023-12-20T13:57:18;2.30;;;2.00;;
3924;SDS011;1977;52.274;10.518;2023-12-20T13:59:45;5.90;;;1.80;;
3924;SDS011;1977;52.274;10.518;2023-12-20T14:02:12;6.27;;;2.27;;
3924;SDS011;1977;52.274;10.518;2023-12-20T14:04:40;2.03;;;1.80;;
3924;SDS011;1977;52.274;10.518;2023-12-20T14:07:07;6.83;;;1.90;;
3924;SDS011;1977;52.274;10.518;2023-12-20T14:09:35;2.77;;;1.73;;
3924;SDS011;1977;52.274;10.518;2023-12-20T14:12:02;1.70;;;1.60;;
3924;SDS011;1977;52.274;10.518;2023-12-20T14:14:29;4.87;;;2.00;;
3924;SDS011;1977;52.274;10.518;2023-12-20T14:16:56;2.10;;;1.90;;
3924;SDS011;1977;52.274;10.518;2023-12-20T14:19:22;2.60;;;2.03;;
3924;SDS011;1977;52.274;10.518;2023-12-20T14:21:50;4.60;;;3.03;;
3924;SDS011;1977;52.274;10.518;2023-12-20T14:24:17;3.13;;;2.70;;
3924;SDS011;1977;52.274;10.518;2023-12-20T14:26:44;4.37;;;2.70;;
3924;SDS011;1977;52.274;10.518;2023-12-20T14:29:10;13.37;;;3.40;;
3924;SDS011;1977;52.274;10.518;2023-12-20T14:31:37;3.20;;;2.90;;
3924;SDS011;1977;52.274;10.518;2023-12-20T14:34:05;4.13;;;3.63;;
3924;SDS011;1977;52.274;10.518;2023-12-20T14:36:33;5.33;;;4.03;;
3924;SDS011;1977;52.274;10.518;2023-12-20T14:39:02;4.50;;;3.07;;
3924;SDS011;1977;52.274;10.518;2023-12-20T14:41:29;4.00;;;2.87;;
3924;SDS011;1977;52.274;10.518;2023-12-20T14:43:56;4.83;;;2.77;;
3924;SDS011;1977;52.274;10.518;2023-12-20T14:46:24;7.77;;;5.70;;
3924;SDS011;1977;52.274;10.518;2023-12-20T14:48:51;3.87;;;3.30;;
3924;SDS011;1977;52.274;10.518;2023-12-20T14:51:18;3.50;;;3.00;;
3924;SDS011;1977;52.274;10.518;2023-12-20T14:53:45;3.87;;;3.50;;
3924;SDS011;1977;52.274;10.518;2023-12-20T14:56:13;4.40;;;4.03;;
3924;SDS011;1977;52.274;10.518;2023-12-20T14:58:41;4.37;;;3.83;;
3924;SDS011;1977;52.274;10.518;2023-12-20T15:01:08;3.50;;;3.20;;